Weather at Saint-Jean-Chrysostome Airport

Public forecast

Using degrees Celsius for public forecast. Weather courtesy of forecast.io.

Closest aviation weather report (METAR) to Saint-Jean-Chrysostome Airport

Closest report is Quebec Jean Lesage International Airport, 11.8 nm (21.8 km) WNW.

2024/05/20 08:00 (retrieved 42 minutes ago)

CYQB 200800Z 06003KT 350V100 15SM SKC 12/11 A2996 RMK SLP147

Closest aviation forecast (TAF) to Saint-Jean-Chrysostome Airport

Closest forecast is Quebec Jean Lesage International Airport, 11.8 nm (21.8 km) WNW.

2024/05/20 06:42 (retrieved 2 hours ago)

TAF CYQB 200540Z 2006/2106 VRB03KT P6SM SKC TEMPO 2006/2011 3SM BR PROB40 2007/2011 1SM BR BKN005 FM201100 VRB03KT P6SM SCT060 BECMG 2014/2016 23008G18KT FM202100 25010G20KT P6SM -SHRA BKN060 OVC120 PROB30 2021/2024 VRB15G25KT 2SM -TSRAGS BR OVC030CB FM210000 27005KT P6SM FEW060 SCT160 FM210500 VRB03KT 6SM BR SCT160 RMK NXT FCST BY 201200Z